Time;durP1;ratioP1;P1;durP2;ratioP2;P2;SDS_P1;SDS_P2;PMS_P1;PMS_P2;Temp;Humidity;BMP_temperature;BMP_pressure;BME280_temperature;BME280_humidity;BME280_pressure;Samples;Min_cycle;Max_cycle;Signal;HPM_P1;HPM_P2
2022/05/04 00:02:02;;;;;;;3.70;2.90;;;;;;;21.01;49.43;101113.72;4976029;28;20054;-71
2022/05/04 00:04:30;;;;;;;3.88;3.25;;;;;;;21.01;49.45;101111.03;4976004;28;20055;-71
2022/05/04 00:06:57;;;;;;;5.55;2.63;;;;;;;21.01;49.35;101113.72;4977108;28;20042;-71
2022/05/04 00:09:24;;;;;;;4.65;2.65;;;;;;;20.99;49.44;101105.78;4977276;28;20525;-71
2022/05/04 00:11:52;;;;;;;4.00;2.75;;;;;;;21.01;49.55;101123.66;4977249;28;20047;-71
2022/05/04 00:14:19;;;;;;;3.80;3.33;;;;;;;20.99;49.48;101113.88;4977002;28;20047;-71
2022/05/04 00:16:46;;;;;;;3.78;3.08;;;;;;;20.99;49.47;101116.56;4976732;28;20102;-71
2022/05/04 00:19:14;;;;;;;3.60;2.83;;;;;;;21.00;49.38;101122.78;4976876;28;20042;-71
2022/05/04 00:21:41;;;;;;;3.80;3.40;;;;;;;21.00;49.34;101120.09;4976634;28;20058;-71
2022/05/04 00:24:08;;;;;;;3.63;2.75;;;;;;;20.98;49.37;101112.19;4976927;28;20050;-71
2022/05/04 00:26:37;;;;;;;3.88;3.25;;;;;;;20.98;49.33;101108.59;4975536;28;20047;-71
2022/05/04 00:29:04;;;;;;;3.45;2.65;;;;;;;20.99;49.45;101108.50;4976863;28;20061;-71
2022/05/04 00:31:32;;;;;;;4.00;3.28;;;;;;;20.99;49.38;101107.66;4976544;28;20047;-72
2022/05/04 00:33:59;;;;;;;3.72;3.28;;;;;;;20.98;49.34;101095.16;4976393;28;20483;-71
2022/05/04 00:36:26;;;;;;;4.35;3.08;;;;;;;20.97;49.25;101097.00;4976510;28;20047;-71
2022/05/04 00:38:54;;;;;;;4.65;2.95;;;;;;;20.98;49.29;101098.72;4977567;28;20047;-71
2022/05/04 00:41:21;;;;;;;3.70;2.70;;;;;;;20.97;49.33;101086.22;4977619;28;20057;-71
2022/05/04 00:43:55;;;;;;;3.67;2.97;;;;;;;20.99;49.28;101099.56;4976158;28;20043;-71
2022/05/04 00:46:24;;;;;;;3.80;3.03;;;;;;;20.97;49.20;101093.44;4976178;28;20047;-71
2022/05/04 00:48:51;;;;;;;3.80;3.03;;;;;;;20.98;49.20;101093.34;4976524;28;20051;-71
2022/05/04 00:51:19;;;;;;;3.90;3.17;;;;;;;20.96;49.39;101094.44;4976519;28;20046;-71
2022/05/04 00:53:47;;;;;;;4.20;3.35;;;;;;;20.97;49.33;101093.44;4976013;28;20046;-71
2022/05/04 00:56:15;;;;;;;4.72;3.20;;;;;;;20.97;49.23;101093.44;4975869;28;20054;-71
2022/05/04 00:58:54;;;;;;;4.47;3.28;;;;;;;20.97;49.21;101090.75;4976631;28;20058;-71
2022/05/04 01:01:29;;;;;;;5.50;2.95;;;;;;;20.97;49.09;101096.16;4976211;28;20431;-71
2022/05/04 01:03:59;;;;;;;6.40;3.28;;;;;;;20.96;49.30;101098.00;4976252;28;20039;-71
2022/05/04 01:06:27;;;;;;;4.47;3.47;;;;;;;20.96;49.28;101098.00;4976045;28;20483;-71
2022/05/04 01:08:55;;;;;;;5.15;3.60;;;;;;;20.95;49.31;101096.28;4976185;28;20047;-71
2022/05/04 01:11:23;;;;;;;5.93;3.60;;;;;;;20.96;49.23;101089.06;4991228;28;20054;-71
2022/05/04 01:14:19;;;;;;;4.32;2.95;;;;;;;20.95;49.29;101088.22;4974413;28;20057;-71
2022/05/04 01:16:51;;;;;;;3.17;2.80;;;;;;;20.96;49.22;101089.06;4975570;28;20066;-71
2022/05/04 01:19:19;;;;;;;4.00;3.00;;;;;;;20.95;49.35;101090.06;4974187;28;20047;-71
2022/05/04 01:21:50;;;;;;;4.65;3.38;;;;;;;20.95;49.29;101093.59;4975578;28;20050;-71
2022/05/04 01:24:18;;;;;;;3.92;2.97;;;;;;;20.95;49.27;101103.53;4975108;28;20049;-71
2022/05/04 01:26:45;;;;;;;4.65;3.90;;;;;;;20.94;49.20;101102.66;4976139;28;20467;-71
2022/05/04 01:29:14;;;;;;;4.85;3.25;;;;;;;20.94;49.33;101101.78;4975646;28;20058;-71
2022/05/04 01:31:42;;;;;;;5.30;3.22;;;;;;;20.93;49.22;101098.25;4975628;28;20054;-71
2022/05/04 01:34:09;;;;;;;3.47;3.10;;;;;;;20.94;49.23;101094.59;4990197;28;20034;-71
2022/05/04 01:36:36;;;;;;;3.95;3.30;;;;;;;20.95;49.21;101106.22;4990385;28;20511;-72
2022/05/04 01:39:04;;;;;;;3.75;3.10;;;;;;;20.93;49.28;101095.56;4975969;28;20058;-71
2022/05/04 01:44:17;;;;;;;5.05;3.33;;;;;;;20.94;49.22;101104.47;4974884;28;20046;-72
2022/05/04 01:46:44;;;;;;;4.10;3.67;;;;;;;20.94;49.32;101099.97;4974717;28;20141;-71
2022/05/04 01:49:12;;;;;;;3.88;3.05;;;;;;;20.93;49.19;101102.78;4975044;28;20039;-71
2022/05/04 01:51:39;;;;;;;3.92;3.40;;;;;;;20.93;49.10;101097.41;4975273;28;20057;-71
2022/05/04 01:54:07;;;;;;;6.43;3.63;;;;;;;20.93;49.17;101095.56;4973972;28;20054;-71
2022/05/04 01:56:34;;;;;;;4.05;3.20;;;;;;;20.94;49.33;101096.41;4974998;28;20070;-71
2022/05/04 01:59:02;;;;;;;3.45;3.00;;;;;;;20.94;49.22;101104.47;4974747;28;20046;-71
2022/05/04 02:01:30;;;;;;;4.88;3.35;;;;;;;20.93;49.24;101097.41;4975101;28;20474;-71
2022/05/04 02:03:59;;;;;;;4.18;3.05;;;;;;;20.92;49.26;101095.72;4975561;28;20060;-71
2022/05/04 02:06:27;;;;;;;5.70;3.33;;;;;;;20.92;49.36;101095.72;4974852;28;20050;-71
2022/05/04 02:08:57;;;;;;;3.97;3.42;;;;;;;20.93;49.20;101097.41;4975315;28;20053;-71
2022/05/04 02:11:25;;;;;;;4.03;3.47;;;;;;;20.92;49.24;101095.72;4974718;28;20050;-71
2022/05/04 02:13:52;;;;;;;3.85;3.13;;;;;;;20.92;49.27;101103.78;4975342;28;20039;-71
2022/05/04 02:16:19;;;;;;;4.70;3.53;;;;;;;20.92;49.33;101111.84;4973200;28;20046;-71
2022/05/04 02:18:47;;;;;;;5.18;3.47;;;;;;;20.92;49.29;101103.78;4975165;28;20047;-71
2022/05/04 02:21:14;;;;;;;5.40;4.03;;;;;;;20.91;49.36;101110.16;4974893;28;20050;-71
2022/05/04 02:23:42;;;;;;;4.20;3.28;;;;;;;20.92;49.15;101111.84;4974421;28;20062;-71
2022/05/04 02:26:10;;;;;;;3.25;2.95;;;;;;;20.91;49.29;101111.00;4974437;28;20482;-71
2022/05/04 02:28:37;;;;;;;3.88;3.30;;;;;;;20.90;49.32;101109.31;4973581;28;20622;-71
2022/05/04 02:31:05;;;;;;;4.47;3.25;;;;;;;20.91;49.28;101102.09;4974988;28;20487;-71
2022/05/04 02:33:32;;;;;;;3.72;2.85;;;;;;;20.91;49.24;101108.31;4974977;28;20054;-71
2022/05/04 02:38:45;;;;;;;3.97;3.47;;;;;;;20.90;49.16;101108.44;4975233;28;20054;-71
2022/05/04 02:41:13;;;;;;;4.03;3.30;;;;;;;20.91;49.13;101099.41;4974953;28;20043;-71
2022/05/04 02:43:40;;;;;;;4.03;3.40;;;;;;;20.90;49.28;101101.25;4975085;28;20455;-72
2022/05/04 02:46:13;;;;;;;4.50;3.63;;;;;;;20.90;49.24;101105.75;4974823;28;20047;-71
2022/05/04 02:48:41;;;;;;;5.05;3.40;;;;;;;20.90;49.17;101108.44;4974953;28;20054;-71
2022/05/04 02:51:08;;;;;;;3.97;3.58;;;;;;;20.89;49.26;101098.66;4974498;28;20073;-71
2022/05/04 02:53:36;;;;;;;4.10;3.47;;;;;;;20.89;49.08;101104.91;4974586;28;20487;-71
2022/05/04 02:56:08;;;;;;;6.70;4.07;;;;;;;20.89;49.28;101109.44;4974253;28;20050;-71
2022/05/04 02:58:36;;;;;;;5.18;4.00;;;;;;;20.88;49.20;101113.97;4975422;28;20061;-71
2022/05/04 03:04:02;;;;;;;5.07;3.70;;;;;;;20.89;49.19;101112.13;4978637;28;20051;-70
2022/05/04 03:06:30;;;;;;;4.85;3.60;;;;;;;20.88;49.15;101113.97;4978619;28;20073;-71
2022/05/04 03:08:57;;;;;;;7.10;3.70;;;;;;;20.88;49.06;101111.28;4977894;28;20526;-71
2022/05/04 03:14:11;;;;;;;5.28;3.92;;;;;;;20.89;49.15;101117.50;4977879;28;20054;-71
2022/05/04 03:16:42;;;;;;;4.53;3.65;;;;;;;20.89;49.30;101110.28;4978247;28;20395;-72
2022/05/04 03:19:09;;;;;;;4.03;3.40;;;;;;;20.89;49.15;101112.13;4978565;28;20063;-71
2022/05/04 03:21:36;;;;;;;4.50;3.50;;;;;;;20.89;49.35;101114.81;4977680;28;20053;-71
2022/05/04 03:24:04;;;;;;;4.97;3.20;;;;;;;20.89;49.25;101117.50;4976611;28;20058;-71
2022/05/04 03:26:32;;;;;;;4.47;3.72;;;;;;;20.89;49.48;101109.44;4977806;28;20058;-71
2022/05/04 03:28:59;;;;;;;3.53;3.08;;;;;;;20.88;49.35;101113.97;4978085;28;20054;-72
2022/05/04 03:31:28;;;;;;;4.18;3.38;;;;;;;20.89;49.40;101114.81;4993357;28;20047;-71
2022/05/04 03:33:55;;;;;;;5.63;3.45;;;;;;;20.89;49.25;101115.66;4978573;28;20415;-71
2022/05/04 03:36:22;;;;;;;3.85;3.10;;;;;;;20.88;49.37;101122.03;4992644;28;20054;-71
2022/05/04 03:38:50;;;;;;;4.90;3.10;;;;;;;20.89;49.45;101120.19;4978385;28;20051;-71
2022/05/04 03:41:17;;;;;;;4.85;3.75;;;;;;;20.89;49.56;101118.34;4977752;28;20050;-71
2022/05/04 03:43:44;;;;;;;4.30;3.38;;;;;;;20.88;49.34;101127.41;4978071;28;20058;-71
2022/05/04 03:46:15;;;;;;;4.75;3.70;;;;;;;20.88;49.49;101127.41;4977561;28;20051;-71
2022/05/04 03:48:44;;;;;;;4.75;3.97;;;;;;;20.89;49.37;101128.25;4977690;28;20038;-71
2022/05/04 03:51:14;;;;;;;4.38;3.45;;;;;;;20.88;49.40;101131.94;4978081;28;20049;-71
2022/05/04 03:53:42;;;;;;;4.20;3.75;;;;;;;20.88;49.52;101132.81;4977116;28;20039;-71
2022/05/04 03:56:09;;;;;;;5.70;3.90;;;;;;;20.88;49.14;101135.50;4977210;28;20043;-71
2022/05/04 03:58:40;;;;;;;5.97;4.28;;;;;;;20.87;49.25;101133.78;4977657;28;20094;-72
2022/05/04 04:01:07;;;;;;;5.18;3.78;;;;;;;20.88;49.36;101134.66;4977787;28;20047;-71
2022/05/04 04:03:37;;;;;;;4.43;3.60;;;;;;;20.86;49.33;101139.28;4977217;28;20053;-72
2022/05/04 04:06:05;;;;;;;4.35;3.63;;;;;;;20.86;49.33;101147.38;4977343;28;20062;-72
2022/05/04 04:08:33;;;;;;;5.97;4.00;;;;;;;20.87;49.34;101139.19;4976724;28;20046;-72
2022/05/04 04:11:00;;;;;;;4.45;3.95;;;;;;;20.87;49.37;101143.72;4976641;28;20054;-71
2022/05/04 04:13:28;;;;;;;3.88;3.47;;;;;;;20.87;49.30;101151.78;4977664;28;20054;-71
2022/05/04 04:15:56;;;;;;;4.40;3.55;;;;;;;20.86;48.95;101148.22;4977338;28;20074;-71
2022/05/04 04:18:25;;;;;;;4.78;3.30;;;;;;;20.86;49.29;101155.44;4977450;28;20069;-71
2022/05/04 04:23:39;;;;;;;5.70;3.58;;;;;;;20.86;49.32;101160.81;4976592;28;20062;-72
2022/05/04 04:26:09;;;;;;;5.15;3.28;;;;;;;20.86;49.29;101160.81;4977325;28;20050;-71
2022/05/04 04:28:40;;;;;;;5.43;3.65;;;;;;;20.85;49.30;101156.44;4977313;28;20062;-71
2022/05/04 04:31:11;;;;;;;3.85;3.42;;;;;;;20.85;49.18;101159.13;4976372;28;20047;-71
2022/05/04 04:33:38;;;;;;;4.13;3.28;;;;;;;20.85;49.33;101164.50;4992060;28;20046;-71
2022/05/04 04:36:06;;;;;;;3.60;3.20;;;;;;;20.84;49.22;101169.03;4976228;28;20057;-71
2022/05/04 04:38:34;;;;;;;5.20;3.83;;;;;;;20.84;48.96;101165.50;4976276;28;20054;-71
2022/05/04 04:41:01;;;;;;;4.13;3.40;;;;;;;20.84;49.20;101166.34;4976389;28;20054;-71
2022/05/04 04:43:28;;;;;;;4.07;3.67;;;;;;;20.85;49.13;101177.97;4976838;28;20046;-71
2022/05/04 04:45:56;;;;;;;4.75;3.72;;;;;;;20.84;49.11;101174.41;4990792;28;20062;-70
2022/05/04 04:48:23;;;;;;;5.50;3.85;;;;;;;20.84;49.21;101184.34;4976371;28;20047;-71
2022/05/04 04:50:50;;;;;;;4.13;3.72;;;;;;;20.84;49.20;101178.94;4976015;28;20046;-71
2022/05/04 04:53:25;;;;;;;4.53;3.55;;;;;;;20.83;49.22;101177.25;4976767;28;20084;-71
2022/05/04 04:55:52;;;;;;;5.05;4.13;;;;;;;20.82;49.28;101179.06;4976350;28;20494;-71
2022/05/04 04:58:20;;;;;;;5.03;3.50;;;;;;;20.83;49.31;101186.19;4976768;28;20050;-71
2022/05/04 05:00:47;;;;;;;5.20;3.88;;;;;;;20.82;49.18;101187.13;4976345;28;20486;-71
2022/05/04 05:03:15;;;;;;;4.88;3.78;;;;;;;20.83;49.31;101196.09;4975835;28;20057;-71
2022/05/04 05:05:43;;;;;;;5.85;3.42;;;;;;;20.83;49.18;101190.72;4975704;28;20483;-71
2022/05/04 05:08:12;;;;;;;4.20;3.75;;;;;;;20.82;49.23;101197.06;4975847;28;20054;-71
2022/05/04 05:10:39;;;;;;;5.05;3.70;;;;;;;20.82;49.33;101194.38;4990500;28;20055;-71
2022/05/04 05:13:07;;;;;;;9.07;4.30;;;;;;;20.82;49.22;101197.06;4975942;28;20051;-71
2022/05/04 05:18:23;;;;;;;4.60;4.03;;;;;;;20.82;49.14;101200.59;4975849;28;20047;-71
2022/05/04 05:20:51;;;;;;;4.65;3.72;;;;;;;20.82;49.21;101203.28;4975436;28;20482;-71
2022/05/04 05:23:23;;;;;;;4.05;3.65;;;;;;;20.82;49.24;101205.97;4975503;28;20054;-71
2022/05/04 05:25:51;;;;;;;4.40;3.83;;;;;;;20.81;49.24;101204.28;4990294;28;20043;-71
2022/05/04 05:28:19;;;;;;;5.00;4.00;;;;;;;20.81;49.15;101198.03;4976064;28;20050;-71
2022/05/04 05:30:47;;;;;;;5.43;4.00;;;;;;;20.81;49.15;101204.28;4976428;28;20051;-71
2022/05/04 05:33:14;;;;;;;3.55;3.22;;;;;;;20.81;49.30;101206.97;4975940;28;20050;-71
2022/05/04 05:35:42;;;;;;;5.20;3.97;;;;;;;20.81;49.17;101217.72;4975169;28;20047;-71
2022/05/04 05:38:10;;;;;;;3.53;3.22;;;;;;;20.82;48.91;101202.44;4975597;28;20043;-71
2022/05/04 05:40:38;;;;;;;4.28;3.70;;;;;;;20.81;48.96;101206.97;4975915;28;20046;-71
2022/05/04 05:43:05;;;;;;;5.43;3.90;;;;;;;20.82;49.08;101215.88;4975450;28;20053;-71
2022/05/04 05:45:33;;;;;;;6.20;4.10;;;;;;;20.80;49.00;101210.66;4975083;28;20093;-71
2022/05/04 05:48:00;;;;;;;5.63;3.90;;;;;;;20.81;49.00;101216.88;4975643;28;20498;-71
2022/05/04 05:50:28;;;;;;;7.00;4.20;;;;;;;20.81;49.23;101211.50;4974911;28;20050;-71
2022/05/04 05:52:55;;;;;;;4.32;3.92;;;;;;;20.81;48.99;101217.72;4975504;28;20376;-71
2022/05/04 05:55:23;;;;;;;8.50;3.58;;;;;;;20.80;49.13;101209.81;4975449;28;20502;-71
2022/05/04 05:57:50;;;;;;;4.28;3.47;;;;;;;20.80;49.14;101221.41;4973986;28;20051;-71
2022/05/04 06:00:18;;;;;;;4.68;3.75;;;;;;;20.80;49.07;101218.72;4974884;28;20495;-70
2022/05/04 06:02:45;;;;;;;5.53;4.03;;;;;;;20.81;49.42;101222.25;4989657;28;20402;-71
2022/05/04 06:05:13;;;;;;;4.55;3.75;;;;;;;20.81;49.27;101227.66;4973797;28;20062;-71
2022/05/04 06:07:40;;;;;;;6.32;3.60;;;;;;;20.81;49.28;101219.56;4975665;28;20053;-71
2022/05/04 06:10:09;;;;;;;5.85;3.97;;;;;;;20.81;49.35;101225.81;4973667;28;20522;-71
2022/05/04 06:12:38;;;;;;;6.10;4.15;;;;;;;20.81;49.25;101233.03;4974999;28;20046;-71
2022/05/04 06:15:10;;;;;;;6.85;3.83;;;;;;;20.81;49.29;101235.72;4974848;28;20046;-71
2022/05/04 06:17:38;;;;;;;6.95;3.60;;;;;;;20.81;49.43;101230.34;4975331;28;20438;-71
2022/05/04 06:20:08;;;;;;;5.47;3.40;;;;;;;20.81;49.47;101231.19;4974637;28;20517;-71
2022/05/04 06:22:35;;;;;;;6.57;4.75;;;;;;;20.82;49.57;101234.72;4975090;28;20058;-71
2022/05/04 06:25:03;;;;;;;4.55;3.70;;;;;;;20.82;49.76;101232.88;4975378;28;20042;-71
2022/05/04 06:27:32;;;;;;;5.93;4.18;;;;;;;20.82;49.63;101240.97;4975241;28;20395;-71
2022/05/04 06:35:31;;;;;;;4.80;3.58;;;;;;;20.84;49.63;101243.53;4975280;28;20053;-71
2022/05/04 06:37:59;;;;;;;5.93;4.05;;;;;;;20.83;49.77;101248.06;4974708;28;20058;-71
2022/05/04 06:40:26;;;;;;;4.85;3.58;;;;;;;20.83;50.02;101237.31;4974443;28;20046;-71
2022/05/04 06:42:53;;;;;;;4.72;3.58;;;;;;;20.84;49.80;101239.00;4973381;28;20050;-71
2022/05/04 06:45:21;;;;;;;6.47;3.50;;;;;;;20.84;49.97;101240.84;4974625;28;20034;-72
2022/05/04 06:47:48;;;;;;;4.85;3.88;;;;;;;20.85;50.00;101240.69;4973897;28;20588;-72
2022/05/04 06:50:17;;;;;;;5.15;3.78;;;;;;;20.85;50.21;101245.22;4974251;28;20051;-71
2022/05/04 06:52:44;;;;;;;5.15;4.50;;;;;;;20.85;50.23;101239.84;4973061;28;20403;-72
2022/05/04 06:55:12;;;;;;;4.65;3.65;;;;;;;20.85;50.23;101234.47;4974047;28;20046;-72
2022/05/04 06:57:39;;;;;;;5.25;3.78;;;;;;;20.86;50.30;101230.78;4974005;28;20073;-72
2022/05/04 07:00:07;;;;;;;6.30;3.65;;;;;;;20.87;50.28;101235.22;4974534;28;20065;-72
2022/05/04 07:02:35;;;;;;;3.63;3.22;;;;;;;20.86;50.38;101242.41;4973149;28;20054;-72
2022/05/04 07:05:04;;;;;;;5.22;3.72;;;;;;;20.87;50.42;101232.50;4973994;28;20049;-72
2022/05/04 07:07:32;;;;;;;6.40;3.83;;;;;;;20.87;50.51;101233.38;4989062;28;20054;-73
2022/05/04 07:09:59;;;;;;;6.30;4.00;;;;;;;20.87;50.29;101236.06;4979096;28;20051;-72
2022/05/04 07:12:27;;;;;;;7.13;4.88;;;;;;;20.87;50.29;101236.06;4974381;28;20046;-72
2022/05/04 07:14:56;;;;;;;6.82;4.85;;;;;;;20.86;49.88;101228.94;4974433;28;20047;-72
2022/05/04 07:17:23;;;;;;;7.57;6.25;;;;;;;20.86;49.42;101239.72;4972216;28;20692;-72
2022/05/04 07:19:52;;;;;;;6.57;5.72;;;;;;;20.87;49.70;101237.91;4974262;28;20054;-72
2022/05/04 07:22:21;;;;;;;6.38;4.78;;;;;;;20.87;49.82;101243.28;4973827;28;20047;-72
2022/05/04 07:24:49;;;;;;;8.20;5.28;;;;;;;20.88;49.78;101234.22;4973937;28;20423;-71
2022/05/04 07:27:17;;;;;;;7.03;6.13;;;;;;;20.88;48.92;101235.06;4973570;28;20122;-71
2022/05/04 07:29:46;;;;;;;8.32;6.80;;;;;;;20.89;48.96;101236.75;4974237;28;20054;-71
2022/05/04 07:32:14;;;;;;;8.52;6.82;;;;;;;20.92;48.90;101231.13;4972733;28;20058;-71
2022/05/04 07:34:42;;;;;;;6.88;6.15;;;;;;;20.93;48.78;101230.13;4973778;28;20046;-72
2022/05/04 07:37:09;;;;;;;6.25;5.65;;;;;;;20.94;49.09;101229.16;4972662;28;20043;-72
2022/05/04 07:42:24;;;;;;;7.00;5.53;;;;;;;20.97;49.11;101234.25;4972763;28;20057;-72
2022/05/04 07:45:06;;;;;;;6.32;5.65;;;;;;;20.98;49.23;101230.59;4973762;28;20043;-71
2022/05/04 07:47:35;;;;;;;6.50;5.15;;;;;;;20.99;49.33;101229.63;4977703;28;20054;-72
2022/05/04 07:50:05;;;;;;;9.65;5.82;;;;;;;21.01;49.29;101224.09;4977400;28;20049;-71
2022/05/04 07:52:33;;;;;;;5.93;5.32;;;;;;;21.03;48.98;101232.91;4977479;28;20510;-71
2022/05/04 07:55:02;;;;;;;7.35;5.20;;;;;;;21.03;48.89;101235.59;4976371;28;20158;-72
2022/05/04 07:57:30;;;;;;;6.55;5.07;;;;;;;21.04;49.03;101225.66;4977430;28;20046;-72
2022/05/04 08:05:34;;;;;;;7.57;5.30;;;;;;;21.07;49.00;101228.94;4976904;28;20057;-72
2022/05/04 08:08:02;;;;;;;6.28;5.55;;;;;;;21.08;48.83;101232.50;4976887;28;20050;-72
2022/05/04 08:10:29;;;;;;;7.85;5.82;;;;;;;21.09;48.83;101236.88;4975125;28;20059;-71
2022/05/04 08:12:58;;;;;;;6.55;5.20;;;;;;;21.10;48.79;101230.50;4977090;28;20046;-71
2022/05/04 08:15:26;;;;;;;7.55;5.20;;;;;;;21.10;49.01;101249.34;4975402;28;20050;-71
2022/05/04 08:17:54;;;;;;;8.20;4.82;;;;;;;21.10;48.75;101235.88;4976533;28;20495;-71
2022/05/04 08:20:21;;;;;;;5.95;5.28;;;;;;;21.10;48.92;101242.13;4975685;28;20054;-71
2022/05/04 08:22:48;;;;;;;7.35;4.82;;;;;;;21.11;48.93;101234.91;4976805;28;20427;-71
2022/05/04 08:25:17;;;;;;;9.73;5.28;;;;;;;21.12;48.93;101239.31;4976604;28;20051;-71
2022/05/04 08:27:45;;;;;;;5.53;4.95;;;;;;;21.11;48.83;101241.16;4975343;28;20039;-71
2022/05/04 08:30:12;;;;;;;5.88;5.13;;;;;;;21.12;49.02;101240.16;4976334;28;20054;-71
2022/05/04 08:32:43;;;;;;;8.18;5.50;;;;;;;21.11;49.02;101243.84;4976564;28;20055;-72
2022/05/04 08:35:12;;;;;;;5.95;5.20;;;;;;;21.14;48.93;101250.78;4976729;28;20058;-71
2022/05/04 08:37:40;;;;;;;6.00;5.13;;;;;;;21.14;48.73;101250.78;4976336;28;20051;-71
2022/05/04 08:40:11;;;;;;;7.28;6.30;;;;;;;21.13;48.32;101238.31;4976088;28;20043;-71
2022/05/04 08:42:42;;;;;;;7.68;5.35;;;;;;;21.13;48.39;101246.41;4976229;28;20162;-71
2022/05/04 08:45:12;;;;;;;7.43;5.82;;;;;;;21.10;47.62;101252.88;4976646;28;20069;-71
2022/05/04 08:47:41;;;;;;;9.02;6.07;;;;;;;21.10;47.41;101243.97;4976293;28;20057;-71
2022/05/04 08:50:17;;;;;;;7.07;5.78;;;;;;;21.09;47.50;101242.25;4976326;28;20053;-71
2022/05/04 08:52:53;;;;;;;8.85;5.80;;;;;;;21.08;47.49;101244.09;4976278;28;20047;-71
2022/05/04 08:55:23;;;;;;;8.48;5.82;;;;;;;21.07;47.54;101231.63;4976463;28;20475;-71
2022/05/04 08:57:51;;;;;;;5.95;5.40;;;;;;;21.06;47.66;101240.69;4975713;28;20050;-71
2022/05/04 09:00:19;;;;;;;6.63;6.03;;;;;;;21.06;47.84;101243.38;4975991;28;20054;-71
2022/05/04 09:02:47;;;;;;;6.85;5.72;;;;;;;21.06;48.02;101245.22;4976081;28;20494;-71
2022/05/04 09:05:20;;;;;;;6.50;4.88;;;;;;;21.06;48.29;101243.38;4975959;28;20039;-71
2022/05/04 09:07:49;;;;;;;5.38;4.47;;;;;;;21.08;48.52;101248.66;4976243;28;20043;-70
2022/05/04 09:10:22;;;;;;;5.15;4.45;;;;;;;21.09;48.58;101253.03;4975535;28;20054;-70
2022/05/04 09:12:50;;;;;;;5.55;5.05;;;;;;;21.11;48.75;101249.22;4975635;28;20047;-71
2022/05/04 09:15:20;;;;;;;5.53;4.72;;;;;;;21.11;48.72;101238.47;4975581;28;20054;-71
2022/05/04 09:17:55;;;;;;;5.07;4.25;;;;;;;21.11;48.61;101243.84;4976580;28;20051;-71
2022/05/04 09:23:12;;;;;;;5.15;4.57;;;;;;;21.15;48.77;101241.75;4975550;28;20059;-71
2022/05/04 09:25:40;;;;;;;5.20;4.40;;;;;;;21.16;48.76;101240.75;4975433;28;20066;-71
2022/05/04 09:28:12;;;;;;;5.82;4.10;;;;;;;21.16;48.85;101240.75;4974058;28;20050;-72
2022/05/04 09:30:51;;;;;;;6.90;4.22;;;;;;;21.16;48.78;101236.22;4975505;28;20482;-71
2022/05/04 09:33:23;;;;;;;7.25;4.40;;;;;;;21.17;48.66;101231.69;4974120;28;20051;-71
2022/05/04 09:35:50;;;;;;;5.22;4.53;;;;;;;21.17;48.69;101235.22;4957938;28;20061;-71
2022/05/04 09:46:44;;;;;;;5.00;4.47;;;;;;;21.17;48.95;101215.53;4974974;28;20402;-71
2022/05/04 09:49:17;;;;;;;4.63;3.97;;;;;;;21.18;48.99;101219.91;4974910;28;20047;-71
2022/05/04 09:51:51;;;;;;;5.13;3.95;;;;;;;21.18;49.02;101211.84;4975412;28;20070;-71
2022/05/04 09:54:27;;;;;;;4.82;4.18;;;;;;;21.19;49.08;101205.50;4974882;28;20050;-71
2022/05/04 09:56:59;;;;;;;5.00;4.20;;;;;;;21.19;48.92;101208.19;4974704;28;20050;-71
2022/05/04 09:59:29;;;;;;;4.97;4.17;;;;;;;21.18;49.12;101204.59;4974606;28;20058;-71
2022/05/04 10:02:02;;;;;;;5.38;4.70;;;;;;;21.20;48.94;101204.50;4974668;28;20411;-71
2022/05/04 10:04:34;;;;;;;4.55;4.10;;;;;;;21.20;49.29;101207.19;4975450;28;20047;-71
2022/05/04 10:07:10;;;;;;;5.00;3.80;;;;;;;21.20;48.80;101199.09;4975308;28;20039;-71
2022/05/04 10:09:38;;;;;;;4.57;4.10;;;;;;;21.20;49.05;101204.50;4974404;28;20047;-71
2022/05/04 10:12:07;;;;;;;5.25;4.25;;;;;;;21.19;48.98;101203.66;4974620;28;20053;-71
2022/05/04 10:14:35;;;;;;;4.63;4.13;;;;;;;21.20;48.85;101204.50;4974793;28;20043;-71
2022/05/04 10:17:20;;;;;;;5.05;3.90;;;;;;;21.20;49.02;101202.66;4974483;28;20046;-71
2022/05/04 10:19:51;;;;;;;5.38;3.70;;;;;;;21.20;49.02;101199.09;4973445;28;20518;-71
2022/05/04 10:23:01;;;;;;;5.38;4.20;;;;;;;21.20;49.06;101196.41;4973577;28;20061;-71
2022/05/04 10:25:34;;;;;;;7.57;4.60;;;;;;;21.20;48.96;101197.25;4974522;28;20058;-71
2022/05/04 10:28:10;;;;;;;4.05;3.55;;;;;;;21.20;48.94;101193.72;4974870;28;20050;-71
2022/05/04 10:30:55;;;;;;;5.40;4.00;;;;;;;21.20;49.00;101188.34;4973110;28;20054;-71
2022/05/04 10:33:32;;;;;;;4.10;3.70;;;;;;;21.20;48.93;101183.81;4974135;28;20055;-71
2022/05/04 10:36:27;;;;;;;5.22;4.38;;;;;;;21.19;48.90;101184.78;4973099;28;20069;-71
2022/05/04 10:38:57;;;;;;;4.47;3.80;;;;;;;21.20;48.97;101189.19;4974327;28;20395;-71
2022/05/04 10:41:35;;;;;;;5.72;4.50;;;;;;;21.20;48.88;101186.50;4974057;28;20057;-71
2022/05/04 10:44:04;;;;;;;4.60;4.20;;;;;;;21.20;48.98;101183.81;4974287;28;20066;-71
2022/05/04 10:46:32;;;;;;;5.13;4.63;;;;;;;21.20;48.96;101185.66;4972740;28;20047;-71
2022/05/04 10:49:03;;;;;;;5.18;3.88;;;;;;;21.20;48.96;101173.03;4974205;28;20046;-71
2022/05/04 10:51:42;;;;;;;4.60;3.97;;;;;;;21.20;48.76;101175.72;4972994;28;20047;-71
2022/05/04 10:54:21;;;;;;;6.00;4.82;;;;;;;21.21;48.74;101176.56;4973080;28;20050;-71
2022/05/04 10:56:54;;;;;;;4.80;4.22;;;;;;;21.20;48.52;101167.66;4974165;28;20050;-71
2022/05/04 10:59:27;;;;;;;5.65;4.30;;;;;;;21.20;48.64;101169.50;4973892;28;20042;-71
2022/05/04 11:02:06;;;;;;;4.28;3.88;;;;;;;21.20;48.72;101169.50;4973997;28;20053;-72
2022/05/04 11:04:35;;;;;;;4.63;3.97;;;;;;;21.21;48.66;101165.81;4974160;28;20402;-71
2022/05/04 11:07:07;;;;;;;4.38;3.97;;;;;;;21.20;48.69;101164.97;4972770;28;20055;-71
2022/05/04 11:09:42;;;;;;;4.93;3.93;;;;;;;21.19;48.86;101160.56;4973916;28;20057;-71
2022/05/04 11:12:11;;;;;;;4.90;3.83;;;;;;;21.19;48.83;101157.88;4974247;28;20047;-71
2022/05/04 11:14:39;;;;;;;5.00;4.00;;;;;;;21.20;48.85;101164.97;4973944;28;20533;-71
2022/05/04 11:17:12;;;;;;;7.25;4.60;;;;;;;21.21;48.85;101149.66;4973745;28;20063;-71
2022/05/04 11:19:44;;;;;;;4.47;4.05;;;;;;;21.20;48.80;101156.88;4975125;28;20490;-71
2022/05/04 11:22:13;;;;;;;4.72;4.32;;;;;;;21.21;48.75;101163.97;4975982;28;20055;-71
2022/05/04 11:25:00;;;;;;;6.07;4.10;;;;;;;21.20;49.01;101159.56;4977706;28;20047;-71
2022/05/04 11:27:28;;;;;;;4.22;3.65;;;;;;;21.20;48.87;101162.25;4977456;28;20055;-71
2022/05/04 11:29:59;;;;;;;4.70;4.20;;;;;;;21.21;49.06;101163.09;4977738;28;20043;-71
2022/05/04 11:32:27;;;;;;;4.53;3.92;;;;;;;21.21;48.64;101161.25;4977670;28;20054;-71
2022/05/04 11:34:56;;;;;;;4.70;4.18;;;;;;;21.20;48.40;101159.56;4977401;28;20054;-71
2022/05/04 11:37:23;;;;;;;4.88;4.47;;;;;;;21.21;48.72;101163.97;4977131;28;20106;-71
2022/05/04 11:39:51;;;;;;;4.25;3.85;;;;;;;21.19;48.53;101155.19;4977227;28;20054;-71
2022/05/04 11:42:19;;;;;;;4.57;4.10;;;;;;;21.20;48.59;101161.41;4977490;28;20051;-71
2022/05/04 11:44:47;;;;;;;4.88;4.18;;;;;;;21.19;48.46;101160.56;4977487;28;20046;-71
2022/05/04 11:47:16;;;;;;;4.00;3.60;;;;;;;21.21;48.62;101153.19;4977055;28;20411;-71
2022/05/04 11:49:44;;;;;;;4.53;4.13;;;;;;;21.21;48.73;101161.25;4977117;28;20403;-71
2022/05/04 11:52:14;;;;;;;4.43;4.03;;;;;;;21.22;48.64;101159.41;4976935;28;20043;-71
2022/05/04 11:54:44;;;;;;;6.80;4.47;;;;;;;21.23;48.70;101161.16;4976990;28;20047;-71
2022/05/04 11:57:13;;;;;;;4.28;3.80;;;;;;;21.22;48.80;101162.97;4976875;28;20414;-71
2022/05/04 11:59:40;;;;;;;4.53;3.63;;;;;;;21.23;48.75;101162.00;4977308;28;20069;-71
2022/05/04 12:02:08;;;;;;;5.55;3.95;;;;;;;21.22;49.05;101160.28;4977078;28;20051;-71
2022/05/04 12:04:36;;;;;;;4.82;4.30;;;;;;;21.23;48.93;101151.22;4976542;28;20054;-71
2022/05/04 12:07:04;;;;;;;5.55;3.92;;;;;;;21.24;49.04;101152.06;4976761;28;20046;-71
2022/05/04 12:09:31;;;;;;;5.25;3.80;;;;;;;21.24;49.04;101150.22;4976613;28;20046;-71
2022/05/04 12:11:59;;;;;;;5.03;4.05;;;;;;;21.25;49.00;101156.47;4976675;28;20411;-71
2022/05/04 12:14:28;;;;;;;4.15;3.67;;;;;;;21.24;49.10;101155.63;4976653;28;20050;-71
2022/05/04 12:16:56;;;;;;;5.88;3.80;;;;;;;21.24;49.04;101158.31;4976707;28;20054;-71